Time;durP1;ratioP1;P1;durP2;ratioP2;P2;SDS_P1;SDS_P2;PMS_P1;PMS_P2;Temp;Humidity;BMP_temperature;BMP_pressure;BME280_temperature;BME280_humidity;BME280_pressure;Samples;Min_cycle;Max_cycle;Signal;HPM_P1;HPM_P2
2021/11/21 00:01:47;;;;;;;203.10;42.15;;;;;;;2.15;100.00;98123.75;5091354;28;20027;-74
2021/11/21 00:04:12;;;;;;;150.73;39.47;;;;;;;2.12;100.00;98116.16;5092738;28;20506;-74
2021/11/21 00:06:38;;;;;;;141.82;39.63;;;;;;;2.21;100.00;98118.47;5092489;28;20035;-73
2021/11/21 00:09:03;;;;;;;140.35;37.58;;;;;;;2.15;100.00;98117.53;5092676;28;20030;-73
2021/11/21 00:11:28;;;;;;;137.55;37.05;;;;;;;2.13;100.00;98108.88;5091895;28;20030;-73
2021/11/21 00:13:54;;;;;;;125.78;37.95;;;;;;;2.24;100.00;98105.31;5091996;28;20460;-72
2021/11/21 00:16:19;;;;;;;331.33;49.75;;;;;;;2.06;100.00;98098.22;5091400;28;20081;-73
2021/11/21 00:18:47;;;;;;;165.93;38.35;;;;;;;2.07;100.00;98099.84;5092421;28;20020;-72
2021/11/21 00:21:13;;;;;;;132.10;36.88;;;;;;;2.04;100.00;98104.88;5088248;28;20021;-75
2021/11/21 00:23:39;;;;;;;91.47;33.38;;;;;;;2.12;100.00;98108.06;5092992;28;20078;-74
2021/11/21 00:26:04;;;;;;;93.95;34.15;;;;;;;2.14;100.00;98100.53;5091918;28;20056;-73
2021/11/21 00:28:30;;;;;;;103.88;35.10;;;;;;;2.17;100.00;98100.06;5094327;28;20082;-72
2021/11/21 00:30:55;;;;;;;104.50;33.22;;;;;;;2.34;100.00;98097.44;5093573;28;20066;-74
2021/11/21 00:33:21;;;;;;;123.97;34.92;;;;;;;2.35;100.00;98084.78;5073788;28;20115;-73
2021/11/21 00:35:46;;;;;;;142.05;35.50;;;;;;;2.26;100.00;98080.78;5073135;28;20504;-74
2021/11/21 00:38:12;;;;;;;153.18;37.08;;;;;;;2.21;100.00;98088.78;5072875;28;20029;-73
2021/11/21 00:40:38;;;;;;;126.20;36.25;;;;;;;1.98;100.00;98079.69;5072954;28;20044;-74
2021/11/21 00:43:04;;;;;;;93.22;35.70;;;;;;;2.12;100.00;98085.66;5073291;28;20029;-74
2021/11/21 00:45:31;;;;;;;230.38;40.28;;;;;;;2.21;100.00;98083.38;5074445;28;20051;-74
2021/11/21 00:47:57;;;;;;;157.25;36.97;;;;;;;2.09;100.00;98081.56;5079237;28;20032;-74
2021/11/21 00:50:26;;;;;;;190.10;36.35;;;;;;;2.05;100.00;98068.75;5074720;28;20082;-74
2021/11/21 00:52:59;;;;;;;194.68;36.72;;;;;;;2.06;100.00;98076.63;5074015;28;20048;-73
2021/11/21 00:55:34;;;;;;;108.72;32.72;;;;;;;1.97;100.00;98072.63;5072515;28;20028;-74
2021/11/21 00:58:01;;;;;;;135.02;35.17;;;;;;;2.01;100.00;98071.13;5072610;28;20032;-74
2021/11/21 01:00:27;;;;;;;141.02;36.55;;;;;;;1.90;100.00;98063.88;5071622;28;20032;-73
2021/11/21 01:02:53;;;;;;;171.70;35.45;;;;;;;1.77;100.00;98066.00;5071940;28;20439;-74
2021/11/21 01:05:18;;;;;;;135.00;34.95;;;;;;;1.76;100.00;98058.97;5070656;28;20400;-74
2021/11/21 01:07:44;;;;;;;240.48;38.25;;;;;;;1.76;100.00;98059.78;5081507;28;20032;-74
2021/11/21 01:10:12;;;;;;;125.45;33.55;;;;;;;1.80;100.00;98050.19;5090994;28;20036;-74
2021/11/21 01:12:40;;;;;;;136.98;35.15;;;;;;;1.86;100.00;98049.22;5091915;28;20073;-74
2021/11/21 01:15:08;;;;;;;137.48;35.75;;;;;;;1.94;100.00;98048.06;5092277;28;20114;-72
2021/11/21 01:17:34;;;;;;;127.10;34.58;;;;;;;1.94;100.00;98048.84;5092539;28;20016;-74
2021/11/21 01:20:00;;;;;;;152.32;33.15;;;;;;;2.01;100.00;98046.84;5092417;28;20028;-74
2021/11/21 01:22:31;;;;;;;187.57;35.85;;;;;;;2.00;100.00;98049.78;5091661;28;20473;-74
2021/11/21 01:24:58;;;;;;;122.30;32.88;;;;;;;1.92;100.00;98036.66;5090570;28;20016;-73
2021/11/21 01:27:24;;;;;;;148.13;34.90;;;;;;;1.97;100.00;98037.59;5090186;28;20080;-73
2021/11/21 01:29:50;;;;;;;280.92;41.58;;;;;;;1.93;100.00;98044.53;5091697;28;20020;-74
2021/11/21 01:32:16;;;;;;;120.93;34.20;;;;;;;1.93;100.00;98038.31;5089498;28;20027;-75
2021/11/21 01:34:41;;;;;;;126.32;32.95;;;;;;;1.86;100.00;98029.53;5091886;28;20073;-73
2021/11/21 01:37:07;;;;;;;105.75;33.00;;;;;;;1.93;100.00;98022.94;5091898;28;20031;-74
2021/11/21 01:39:32;;;;;;;131.45;35.42;;;;;;;2.08;100.00;98025.97;5092119;28;20043;-75
2021/11/21 01:41:58;;;;;;;157.13;36.08;;;;;;;1.98;100.00;98020.34;5092082;28;20430;-74
2021/11/21 01:44:23;;;;;;;110.82;35.50;;;;;;;1.96;100.00;98017.09;5091745;28;20474;-75
2021/11/21 01:46:51;;;;;;;178.52;37.53;;;;;;;1.92;100.00;98018.59;5092719;28;20035;-74
2021/11/21 01:49:17;;;;;;;122.00;36.20;;;;;;;1.96;100.00;98006.28;5091888;28;20107;-74
2021/11/21 01:51:43;;;;;;;128.52;35.88;;;;;;;2.00;100.00;98012.84;5094470;28;20052;-76
2021/11/21 01:54:09;;;;;;;136.40;34.60;;;;;;;2.05;100.00;97999.47;5095953;28;20158;-75
2021/11/21 01:56:35;;;;;;;174.07;38.55;;;;;;;2.01;100.00;97998.28;5094066;28;20028;-80
2021/11/21 01:59:01;;;;;;;146.32;35.45;;;;;;;2.02;100.00;98002.63;5095404;28;20430;-76
2021/11/21 02:01:27;;;;;;;130.05;34.75;;;;;;;2.06;100.00;97992.19;5092083;28;20024;-73
2021/11/21 02:03:53;;;;;;;93.32;31.42;;;;;;;2.01;100.00;97989.38;5090276;28;20074;-74
2021/11/21 02:06:19;;;;;;;113.13;34.00;;;;;;;2.14;100.00;97986.41;5092044;28;20024;-75
2021/11/21 02:08:44;;;;;;;129.50;33.20;;;;;;;2.08;100.00;97980.09;5091566;28;20532;-74
2021/11/21 02:11:10;;;;;;;94.10;29.98;;;;;;;2.04;100.00;97976.25;5091578;28;20028;-73
2021/11/21 02:13:35;;;;;;;100.15;29.65;;;;;;;2.01;100.00;97981.28;5091257;28;20539;-76
2021/11/21 02:16:01;;;;;;;122.57;31.42;;;;;;;1.89;100.00;97980.50;5091430;28;20030;-74
2021/11/21 02:18:26;;;;;;;156.38;34.17;;;;;;;1.91;100.00;97965.72;5092127;28;20017;-74
2021/11/21 02:20:55;;;;;;;83.55;30.98;;;;;;;1.94;100.00;97959.06;5092076;28;20028;-75
2021/11/21 02:23:23;;;;;;;194.40;35.03;;;;;;;2.02;100.00;97959.50;5095701;28;20035;-75
2021/11/21 02:25:50;;;;;;;100.82;31.05;;;;;;;1.96;100.00;97957.75;5093817;28;20023;-73
2021/11/21 02:28:16;;;;;;;127.80;32.30;;;;;;;1.92;100.00;97953.88;5091560;28;20103;-73
2021/11/21 02:30:41;;;;;;;80.05;31.10;;;;;;;1.98;100.00;97944.84;5091238;28;20016;-73
2021/11/21 02:33:13;;;;;;;144.15;34.28;;;;;;;2.09;100.00;97953.94;5092093;28;20039;-74
2021/11/21 02:35:41;;;;;;;190.65;36.35;;;;;;;2.00;100.00;97948.13;5091394;28;20081;-73
2021/11/21 02:38:08;;;;;;;119.35;34.92;;;;;;;1.99;100.00;97946.47;5091361;28;20032;-73
2021/11/21 02:40:34;;;;;;;91.20;31.33;;;;;;;1.93;100.00;97950.16;5098483;28;20028;-79
2021/11/21 02:42:59;;;;;;;69.93;30.20;;;;;;;1.86;100.00;97951.34;5097006;28;20026;-74
2021/11/21 02:45:26;;;;;;;115.13;31.88;;;;;;;1.89;100.00;97940.88;5091285;28;20024;-74
2021/11/21 02:47:51;;;;;;;80.03;27.83;;;;;;;1.84;100.00;97935.41;5076733;28;20373;-74
2021/11/21 02:50:20;;;;;;;186.60;35.83;;;;;;;1.83;100.00;97920.28;5090537;28;20107;-74
2021/11/21 02:52:47;;;;;;;70.40;28.40;;;;;;;1.84;100.00;97919.22;5088987;28;20545;-74
2021/11/21 02:55:15;;;;;;;72.82;27.98;;;;;;;1.92;100.00;97916.13;5090565;28;20039;-74
2021/11/21 02:57:41;;;;;;;80.47;28.88;;;;;;;1.99;100.00;97916.81;5088370;28;20224;-75
2021/11/21 03:00:10;;;;;;;67.15;28.23;;;;;;;1.93;100.00;97912.38;5079004;28;20032;-75
2021/11/21 03:02:44;;;;;;;68.70;28.05;;;;;;;2.01;100.00;97906.59;5090799;28;20824;-75
2021/11/21 03:05:10;;;;;;;161.95;29.90;;;;;;;1.82;100.00;97902.47;5090338;28;20040;-75
2021/11/21 03:07:35;;;;;;;61.15;27.50;;;;;;;1.92;100.00;97908.06;5090667;28;20077;-75
2021/11/21 03:10:01;;;;;;;77.85;27.13;;;;;;;1.88;100.00;97898.00;5090847;28;20072;-75
2021/11/21 03:12:26;;;;;;;88.68;30.90;;;;;;;1.95;100.00;97896.78;5090949;28;20061;-75
2021/11/21 03:14:52;;;;;;;98.57;30.13;;;;;;;1.92;100.00;97886.47;5090595;28;20828;-77
2021/11/21 03:17:19;;;;;;;161.60;32.45;;;;;;;2.03;100.00;97887.50;5077853;28;20059;-75
2021/11/21 03:19:45;;;;;;;131.63;29.98;;;;;;;1.92;100.00;97878.38;5068998;28;20017;-75
2021/11/21 03:22:11;;;;;;;74.85;29.17;;;;;;;1.95;100.00;97877.91;5070155;28;20039;-74
2021/11/21 03:24:36;;;;;;;70.18;27.85;;;;;;;1.94;100.00;97884.34;5070200;28;20016;-74
2021/11/21 03:27:02;;;;;;;80.20;27.88;;;;;;;1.80;100.00;97876.81;5070263;28;20060;-74
2021/11/21 03:29:27;;;;;;;92.82;27.52;;;;;;;1.57;100.00;97866.94;5070447;28;20033;-75
2021/11/21 03:31:53;;;;;;;120.80;27.50;;;;;;;1.57;100.00;97864.22;5070890;28;20156;-77
2021/11/21 03:34:19;;;;;;;90.80;27.13;;;;;;;1.53;100.00;97860.41;5070354;28;20724;-74
2021/11/21 03:36:45;;;;;;;86.68;27.55;;;;;;;1.64;100.00;97862.22;5070184;28;20048;-75
2021/11/21 03:39:10;;;;;;;96.63;27.33;;;;;;;1.67;100.00;97855.53;5070183;28;20178;-75
2021/11/21 03:41:37;;;;;;;91.13;29.85;;;;;;;1.64;100.00;97848.75;5070757;28;20035;-75
2021/11/21 03:44:07;;;;;;;116.45;29.50;;;;;;;1.69;100.00;97851.56;5076130;28;20040;-76
2021/11/21 03:46:34;;;;;;;60.70;27.92;;;;;;;1.80;100.00;97844.44;5074283;28;20054;-75
2021/11/21 03:49:00;;;;;;;68.07;28.77;;;;;;;1.94;100.00;97846.59;5070402;28;20541;-75
2021/11/21 03:51:26;;;;;;;84.32;26.50;;;;;;;1.98;100.00;97841.53;5076425;28;20056;-75
2021/11/21 03:53:51;;;;;;;106.40;29.90;;;;;;;1.97;100.00;97845.31;5090227;28;20036;-75
2021/11/21 03:56:17;;;;;;;167.40;31.77;;;;;;;1.75;100.00;97842.50;5092408;28;20389;-75
2021/11/21 03:58:43;;;;;;;105.70;29.40;;;;;;;1.74;100.00;97840.03;5093908;28;20468;-75
2021/11/21 04:01:08;;;;;;;65.65;26.50;;;;;;;1.69;100.00;97838.06;5094156;28;20560;-76
2021/11/21 04:03:34;;;;;;;75.03;26.63;;;;;;;1.68;100.00;97831.03;5093720;28;20024;-74
2021/11/21 04:05:59;;;;;;;59.35;24.73;;;;;;;1.70;100.00;97822.69;5094055;28;20038;-77
2021/11/21 04:08:25;;;;;;;64.72;25.65;;;;;;;1.71;100.00;97829.72;5094426;28;20028;-75
2021/11/21 04:10:51;;;;;;;62.40;25.25;;;;;;;1.70;100.00;97828.91;5094097;28;20412;-74
2021/11/21 04:13:16;;;;;;;52.47;26.63;;;;;;;1.84;100.00;97816.78;5093657;28;20035;-75
2021/11/21 04:15:42;;;;;;;48.67;25.75;;;;;;;1.77;100.00;97805.31;5093461;28;20472;-76
2021/11/21 04:18:09;;;;;;;56.70;25.10;;;;;;;1.76;100.00;97808.25;5093712;28;20028;-75
2021/11/21 04:20:35;;;;;;;73.47;24.67;;;;;;;1.81;100.00;97803.78;5093574;28;20028;-75
2021/11/21 04:23:00;;;;;;;93.15;23.60;;;;;;;1.74;100.00;97808.50;5093414;28;20028;-75
2021/11/21 04:25:25;;;;;;;79.15;24.52;;;;;;;1.71;100.00;97809.00;5093199;28;20387;-74
2021/11/21 04:27:51;;;;;;;54.85;26.08;;;;;;;1.63;100.00;97795.88;5093379;28;20032;-75
2021/11/21 04:30:16;;;;;;;66.90;25.73;;;;;;;1.74;100.00;97795.03;5093267;28;20028;-75
2021/11/21 04:32:44;;;;;;;60.60;24.60;;;;;;;1.68;100.00;97790.59;5092881;28;20066;-75
2021/11/21 04:35:13;;;;;;;99.82;27.40;;;;;;;1.60;100.00;97785.59;5093163;28;20503;-74
2021/11/21 04:37:39;;;;;;;124.93;27.83;;;;;;;1.57;100.00;97778.00;5093172;28;20028;-73
2021/11/21 04:40:06;;;;;;;218.88;36.40;;;;;;;1.61;100.00;97776.47;5093174;28;20077;-75
2021/11/21 04:42:32;;;;;;;144.50;30.83;;;;;;;1.66;100.00;97773.84;5093357;28;20070;-75
2021/11/21 04:44:58;;;;;;;138.40;30.98;;;;;;;1.60;100.00;97781.03;5092920;28;20074;-75
2021/11/21 04:47:23;;;;;;;158.43;29.80;;;;;;;1.55;100.00;97775.56;5093139;28;20068;-74
2021/11/21 04:49:49;;;;;;;153.52;31.55;;;;;;;1.52;100.00;97772.53;5092826;28;20024;-75
2021/11/21 04:52:14;;;;;;;120.80;28.52;;;;;;;1.63;100.00;97768.16;5092945;28;20513;-74
2021/11/21 04:54:40;;;;;;;81.38;29.42;;;;;;;1.60;100.00;97769.41;5092813;28;20028;-76
2021/11/21 04:57:06;;;;;;;74.45;29.02;;;;;;;1.67;100.00;97764.69;5093543;28;20028;-74
2021/11/21 04:59:32;;;;;;;66.00;26.88;;;;;;;1.63;100.00;97763.53;5093117;28;20031;-75
2021/11/21 05:01:58;;;;;;;119.43;29.17;;;;;;;1.62;100.00;97761.94;5095033;28;20028;-74
2021/11/21 05:04:24;;;;;;;82.72;28.10;;;;;;;1.43;100.00;97752.41;5092801;28;20027;-75
2021/11/21 05:06:49;;;;;;;130.20;27.42;;;;;;;1.34;100.00;97749.31;5092680;28;20047;-76
2021/11/21 05:09:14;;;;;;;122.47;29.95;;;;;;;1.47;100.00;97742.81;5092433;28;20115;-75
2021/11/21 05:11:40;;;;;;;79.65;30.40;;;;;;;1.57;100.00;97745.66;5093271;28;20024;-75
2021/11/21 05:14:05;;;;;;;89.57;28.50;;;;;;;1.58;100.00;97752.69;5094552;28;20028;-73
2021/11/21 05:16:35;;;;;;;187.20;34.50;;;;;;;1.58;100.00;97750.81;5099464;28;20028;-76
2021/11/21 05:19:02;;;;;;;107.15;27.10;;;;;;;1.58;100.00;97747.28;5092790;28;20065;-75
2021/11/21 05:21:27;;;;;;;94.65;23.27;;;;;;;1.67;100.00;97753.09;5092777;28;20016;-75
2021/11/21 05:23:53;;;;;;;91.80;24.55;;;;;;;1.53;100.00;97742.66;5092370;28;20050;-75
2021/11/21 05:26:19;;;;;;;116.93;26.23;;;;;;;1.22;100.00;97731.56;5092203;28;20032;-72
2021/11/21 05:28:44;;;;;;;103.30;25.90;;;;;;;1.14;100.00;97718.47;5092581;28;20086;-75
2021/11/21 05:31:10;;;;;;;100.55;23.42;;;;;;;1.10;100.00;97725.41;5092590;28;20038;-76
2021/11/21 05:33:35;;;;;;;79.18;23.38;;;;;;;1.15;100.00;97723.63;5092561;28;20124;-76
2021/11/21 05:36:00;;;;;;;87.22;23.20;;;;;;;1.03;100.00;97723.66;5087716;28;20438;-76
2021/11/21 05:38:26;;;;;;;106.10;23.30;;;;;;;1.02;100.00;97721.22;5080989;28;20103;-75
2021/11/21 05:40:51;;;;;;;100.13;22.50;;;;;;;0.95;100.00;97729.44;5076470;28;20101;-75
2021/11/21 05:43:17;;;;;;;122.88;24.85;;;;;;;1.14;100.00;97718.47;5093658;28;20376;-76
2021/11/21 05:45:43;;;;;;;62.20;21.88;;;;;;;1.14;100.00;97721.97;5094381;28;20039;-74
2021/11/21 05:48:08;;;;;;;91.57;21.50;;;;;;;1.15;100.00;97729.00;5092418;28;20609;-76
2021/11/21 05:50:34;;;;;;;55.42;21.50;;;;;;;1.21;100.00;97716.44;5092214;28;20081;-74
2021/11/21 05:52:59;;;;;;;62.03;22.38;;;;;;;1.32;100.00;97720.94;5091484;28;20047;-75
2021/11/21 05:55:24;;;;;;;97.47;23.50;;;;;;;1.33;100.00;97725.28;5074673;28;20383;-73
2021/11/21 05:57:50;;;;;;;89.55;22.52;;;;;;;1.32;100.00;97713.69;5071359;28;20472;-76
2021/11/21 06:00:24;;;;;;;70.60;21.67;;;;;;;1.30;100.00;97715.00;5071674;28;20043;-74
2021/11/21 06:02:49;;;;;;;58.42;21.27;;;;;;;1.34;100.00;97716.16;5071356;28;20020;-75
2021/11/21 06:05:16;;;;;;;73.47;23.00;;;;;;;1.32;100.00;97715.56;5071639;28;20021;-76
2021/11/21 06:07:41;;;;;;;60.63;23.05;;;;;;;1.45;100.00;97720.66;5070053;28;20028;-76
2021/11/21 06:10:09;;;;;;;62.28;21.92;;;;;;;1.35;100.00;97718.59;5071392;28;20024;-76
2021/11/21 06:12:36;;;;;;;64.43;22.15;;;;;;;1.46;100.00;97719.59;5074539;28;20028;-76
2021/11/21 06:15:02;;;;;;;79.32;22.98;;;;;;;1.47;100.00;97715.84;5077614;28;20537;-76
2021/11/21 06:17:28;;;;;;;63.25;21.88;;;;;;;1.45;100.00;97715.25;5077913;28;20054;-77
2021/11/21 06:19:53;;;;;;;49.60;21.20;;;;;;;1.46;100.00;97708.81;5071649;28;20024;-75
2021/11/21 06:22:19;;;;;;;66.32;22.52;;;;;;;1.44;100.00;97706.34;5071109;28;20071;-75
2021/11/21 06:24:45;;;;;;;70.50;23.23;;;;;;;1.46;100.00;97708.81;5071077;28;20024;-75
2021/11/21 06:27:11;;;;;;;49.95;22.17;;;;;;;1.50;100.00;97699.19;5070971;28;20028;-75
2021/11/21 06:29:37;;;;;;;99.35;22.63;;;;;;;1.40;100.00;97702.53;5071172;28;20610;-76
2021/11/21 06:32:03;;;;;;;59.50;21.42;;;;;;;1.30;100.00;97704.22;5070942;28;20029;-75
2021/11/21 06:34:30;;;;;;;66.38;21.65;;;;;;;1.34;100.00;97694.63;5071151;28;20115;-75
2021/11/21 06:36:56;;;;;;;49.67;23.00;;;;;;;1.19;100.00;97697.03;5087161;28;20028;-76
2021/11/21 06:39:22;;;;;;;113.30;25.08;;;;;;;1.20;100.00;97694.09;5091045;28;20111;-75
2021/11/21 06:41:47;;;;;;;99.60;23.02;;;;;;;1.16;100.00;97697.53;5091514;28;20483;-76
2021/11/21 06:44:13;;;;;;;80.55;24.90;;;;;;;1.26;100.00;97695.00;5091583;28;20028;-75
2021/11/21 06:46:39;;;;;;;70.45;23.58;;;;;;;1.33;100.00;97701.88;5091165;28;20136;-75
2021/11/21 06:49:05;;;;;;;98.88;26.15;;;;;;;1.44;100.00;97698.28;5091317;28;20024;-74
2021/11/21 06:51:31;;;;;;;138.70;30.27;;;;;;;1.41;100.00;97701.47;5089682;28;20492;-75
2021/11/21 06:53:57;;;;;;;49.40;23.98;;;;;;;1.43;100.00;97702.06;5091073;28;20058;-77
2021/11/21 06:56:23;;;;;;;86.10;23.92;;;;;;;1.43;100.00;97693.97;5091027;28;20028;-75
2021/11/21 06:58:49;;;;;;;52.13;23.83;;;;;;;1.58;100.00;97702.31;5090795;28;20020;-74
2021/11/21 07:01:15;;;;;;;46.60;22.17;;;;;;;1.64;100.00;97697.81;5091002;28;20031;-76
2021/11/21 07:03:41;;;;;;;66.70;23.27;;;;;;;1.62;100.00;97689.16;5090843;28;20050;-76
2021/11/21 07:06:07;;;;;;;88.68;23.17;;;;;;;1.58;100.00;97683.44;5090620;28;20070;-76
2021/11/21 07:08:32;;;;;;;61.83;22.77;;;;;;;1.70;100.00;97694.13;5091123;28;20077;-76
2021/11/21 07:10:58;;;;;;;62.08;20.23;;;;;;;1.69;100.00;97692.53;5091884;28;20055;-75
2021/11/21 07:13:23;;;;;;;49.92;21.30;;;;;;;1.75;100.00;97677.22;5091000;28;20062;-75
2021/11/21 07:15:50;;;;;;;60.97;20.17;;;;;;;1.74;100.00;97683.69;5090659;28;20036;-75
2021/11/21 07:18:15;;;;;;;94.97;24.77;;;;;;;1.70;100.00;97686.03;5091281;28;20051;-75
2021/11/21 07:20:40;;;;;;;86.85;23.08;;;;;;;1.77;100.00;97678.63;5090916;28;20468;-75
2021/11/21 07:23:06;;;;;;;53.97;22.23;;;;;;;1.80;100.00;97675.44;5090703;28;20035;-75
2021/11/21 07:25:32;;;;;;;77.90;19.60;;;;;;;1.71;100.00;97679.59;5090934;28;20039;-75
2021/11/21 07:27:58;;;;;;;141.85;22.20;;;;;;;1.50;100.00;97677.66;5090888;28;20025;-75
2021/11/21 07:30:24;;;;;;;60.85;22.95;;;;;;;1.56;100.00;97682.06;5093857;28;20089;-77
2021/11/21 07:32:51;;;;;;;55.78;20.63;;;;;;;1.65;100.00;97679.75;5094912;28;20032;-74
2021/11/21 07:35:18;;;;;;;110.13;21.45;;;;;;;1.59;100.00;97679.69;5094474;28;20032;-75
2021/11/21 07:37:44;;;;;;;133.57;21.05;;;;;;;1.65;100.00;97677.06;5094442;28;20111;-75
2021/11/21 07:40:12;;;;;;;67.55;20.40;;;;;;;1.74;100.00;97673.72;5094615;28;20114;-75
2021/11/21 07:42:38;;;;;;;45.72;19.40;;;;;;;1.83;100.00;97677.63;5094410;28;20036;-74
2021/11/21 07:45:05;;;;;;;89.10;20.60;;;;;;;1.76;100.00;97670.75;5094640;28;20027;-73
2021/11/21 07:47:31;;;;;;;47.15;18.58;;;;;;;1.90;100.00;97682.84;5094231;28;20040;-73
2021/11/21 07:49:57;;;;;;;86.00;19.83;;;;;;;1.91;100.00;97674.50;5094081;28;20109;-74
2021/11/21 07:52:24;;;;;;;46.50;19.38;;;;;;;2.00;100.00;97673.06;5096158;28;20040;-76
2021/11/21 07:54:50;;;;;;;51.67;21.70;;;;;;;2.08;100.00;97672.63;5095614;28;20032;-73
2021/11/21 07:57:15;;;;;;;83.80;19.60;;;;;;;2.03;100.00;97667.16;5094633;28;20034;-74
2021/11/21 07:59:41;;;;;;;68.32;21.27;;;;;;;2.03;100.00;97666.34;5094728;28;20471;-72
2021/11/21 08:02:07;;;;;;;114.07;22.23;;;;;;;2.05;100.00;97670.41;5094315;28;20028;-74
2021/11/21 08:04:32;;;;;;;78.30;19.50;;;;;;;1.91;100.00;97662.94;5094313;28;20024;-73
2021/11/21 08:06:57;;;;;;;44.10;19.73;;;;;;;1.90;100.00;97662.09;5094750;28;20028;-74
2021/11/21 08:09:23;;;;;;;59.03;19.83;;;;;;;2.04;100.00;97659.84;5095291;28;20108;-74
2021/11/21 08:11:48;;;;;;;104.22;22.50;;;;;;;2.09;100.00;97658.06;5095904;28;20050;-75
2021/11/21 08:14:14;;;;;;;40.95;18.77;;;;;;;2.17;100.00;97657.63;5099007;28;20036;-77
2021/11/21 08:16:41;;;;;;;116.70;21.27;;;;;;;2.13;100.00;97661.88;5098343;28;20127;-74
2021/11/21 08:19:08;;;;;;;57.70;20.67;;;;;;;2.08;100.00;97661.81;5097762;28;20095;-75
2021/11/21 08:21:33;;;;;;;61.03;21.42;;;;;;;2.08;100.00;97658.31;5097220;28;20708;-74
2021/11/21 08:23:59;;;;;;;61.05;19.23;;;;;;;2.13;100.00;97656.50;5094046;28;20039;-75
2021/11/21 08:26:24;;;;;;;49.67;18.67;;;;;;;2.24;100.00;97648.53;5094076;28;20028;-75
2021/11/21 08:28:50;;;;;;;48.33;20.15;;;;;;;2.32;100.00;97653.53;5093931;28;20024;-74
2021/11/21 08:31:15;;;;;;;38.50;18.00;;;;;;;2.35;100.00;97650.31;5093317;28;20388;-74
2021/11/21 08:33:40;;;;;;;57.85;19.15;;;;;;;2.36;100.00;97650.06;5093556;28;20380;-76
2021/11/21 08:36:06;;;;;;;51.80;17.73;;;;;;;2.52;100.00;97656.47;5093758;28;20048;-76
2021/11/21 08:38:32;;;;;;;56.17;17.55;;;;;;;2.39;100.00;97654.13;5093405;28;20039;-76
2021/11/21 08:40:58;;;;;;;47.85;18.27;;;;;;;2.52;100.00;97651.06;5091515;28;20020;-73
2021/11/21 08:43:23;;;;;;;50.30;20.77;;;;;;;2.42;100.00;97656.31;5091683;28;20499;-73
2021/11/21 08:45:49;;;;;;;33.75;18.25;;;;;;;2.58;100.00;97647.34;5092017;28;20024;-73
2021/11/21 08:48:14;;;;;;;58.03;19.08;;;;;;;2.51;100.00;97650.25;5090323;28;20024;-73
2021/11/21 08:50:40;;;;;;;47.33;19.17;;;;;;;2.57;100.00;97651.94;5091710;28;20077;-70
2021/11/21 08:53:05;;;;;;;62.40;20.95;;;;;;;2.55;100.00;97650.56;5088637;28;20047;-70
2021/11/21 08:55:31;;;;;;;68.60;19.67;;;;;;;2.48;100.00;97658.84;5092191;28;20079;-70
2021/11/21 08:57:57;;;;;;;56.28;20.88;;;;;;;2.37;100.00;97642.78;5095765;28;20070;-74
2021/11/21 09:00:23;;;;;;;53.78;20.42;;;;;;;2.48;100.00;97652.63;5092061;28;20039;-75
2021/11/21 09:02:49;;;;;;;44.92;21.05;;;;;;;2.43;100.00;97655.28;5090301;28;20027;-74
2021/11/21 09:05:15;;;;;;;60.30;20.13;;;;;;;2.55;100.00;97655.97;5091718;28;20028;-74
2021/11/21 09:07:43;;;;;;;91.40;21.27;;;;;;;2.59;100.00;97644.41;5087126;28;20020;-74
2021/11/21 09:10:12;;;;;;;52.95;22.88;;;;;;;2.70;100.00;97648.03;5091548;28;20031;-74
2021/11/21 09:12:38;;;;;;;55.30;21.63;;;;;;;2.97;100.00;97646.19;5091852;28;20028;-74
2021/11/21 09:15:05;;;;;;;46.17;22.80;;;;;;;3.06;100.00;97641.16;5093300;28;20020;-76
2021/11/21 09:17:30;;;;;;;47.45;19.65;;;;;;;3.10;100.00;97645.75;5097895;28;20038;-77
2021/11/21 09:19:56;;;;;;;71.88;20.52;;;;;;;2.84;100.00;97638.50;5091855;28;20032;-74
2021/11/21 09:22:21;;;;;;;40.90;20.48;;;;;;;3.05;100.00;97636.81;5087309;28;20036;-75
2021/11/21 09:24:46;;;;;;;42.20;21.33;;;;;;;3.30;100.00;97638.94;5076745;28;20025;-75
2021/11/21 09:27:14;;;;;;;44.22;19.40;;;;;;;3.19;100.00;97638.03;5088675;28;20043;-74
2021/11/21 09:29:44;;;;;;;48.53;18.55;;;;;;;3.39;100.00;97634.69;5096683;28;20033;-75
2021/11/21 09:32:11;;;;;;;37.75;20.13;;;;;;;3.51;100.00;97629.94;5083531;28;20500;-75
2021/11/21 09:34:38;;;;;;;38.17;18.45;;;;;;;3.64;100.00;97624.06;5111564;28;20035;-71
2021/11/21 09:37:03;;;;;;;30.58;18.00;;;;;;;3.62;100.00;97623.53;5112396;27;20487;-74
2021/11/21 09:39:29;;;;;;;40.13;19.48;;;;;;;3.42;100.00;97609.84;5112758;28;20047;-73
2021/11/21 09:41:54;;;;;;;35.33;20.02;;;;;;;3.49;100.00;97615.84;5112545;28;20027;-73
2021/11/21 09:44:20;;;;;;;29.92;18.27;;;;;;;3.64;100.00;97610.56;5112915;28;20039;-76
2021/11/21 09:46:45;;;;;;;36.28;17.50;;;;;;;3.78;100.00;97614.44;5111369;28;20032;-73
2021/11/21 09:49:12;;;;;;;33.00;19.40;;;;;;;3.85;100.00;97615.06;5112714;28;20134;-73
2021/11/21 09:51:38;;;;;;;36.13;21.05;;;;;;;3.75;100.00;97604.97;5111138;28;20048;-73
2021/11/21 09:54:03;;;;;;;47.90;22.80;;;;;;;3.75;100.00;97604.97;5111353;28;20023;-72
2021/11/21 09:56:30;;;;;;;41.75;22.38;;;;;;;3.77;100.00;97608.22;5112334;28;20035;-73
2021/11/21 09:58:58;;;;;;;44.03;22.95;;;;;;;3.84;100.00;97599.06;5111151;28;20036;-75
2021/11/21 10:01:44;;;;;;;40.83;22.42;;;;;;;3.96;100.00;97588.84;5112457;28;20028;-72
2021/11/21 10:04:12;;;;;;;38.88;21.13;;;;;;;4.23;100.00;97584.13;5112032;28;20032;-74
2021/11/21 10:06:48;;;;;;;44.33;21.67;;;;;;;4.07;100.00;97575.09;5103362;28;20388;-76
2021/11/21 10:09:18;;;;;;;36.53;20.30;;;;;;;4.28;100.00;97576.84;5091753;28;20035;-74
2021/11/21 10:11:57;;;;;;;34.38;19.83;;;;;;;4.64;100.00;97571.53;5091479;28;20044;-74
2021/11/21 10:14:22;;;;;;;39.03;21.45;;;;;;;4.64;100.00;97574.25;5091736;28;20028;-75
2021/11/21 10:16:48;;;;;;;43.08;24.77;;;;;;;4.99;100.00;97562.69;5091586;28;20043;-73
2021/11/21 10:19:14;;;;;;;42.70;22.70;;;;;;;4.80;100.00;97562.38;5091422;28;20541;-72
2021/11/21 10:21:45;;;;;;;41.72;25.13;;;;;;;4.80;100.00;97554.25;5091579;28;20032;-75
2021/11/21 10:24:37;;;;;;;36.65;20.42;;;;;;;4.62;100.00;97554.75;5090615;28;20042;-74
2021/11/21 10:27:08;;;;;;;40.70;22.00;;;;;;;4.63;100.00;97554.50;5087638;28;20043;-73
2021/11/21 10:29:45;;;;;;;42.88;23.40;;;;;;;4.45;100.00;97548.75;5091678;28;20051;-74
2021/11/21 10:32:13;;;;;;;41.38;22.02;;;;;;;4.57;100.00;97546.63;5091008;28;20024;-72
2021/11/21 10:35:15;;;;;;;35.83;21.25;;;;;;;5.21;100.00;97545.09;5090589;28;20035;-74
2021/11/21 10:37:41;;;;;;;40.08;23.15;;;;;;;5.30;100.00;97535.31;5086530;28;20481;-75
2021/11/21 10:40:11;;;;;;;39.63;22.45;;;;;;;5.44;100.00;97526.63;5090516;28;20027;-74
2021/11/21 10:42:39;;;;;;;41.38;22.42;;;;;;;5.84;100.00;97521.13;5089439;28;20100;-74
2021/11/21 10:45:07;;;;;;;33.17;21.25;;;;;;;6.18;100.00;97518.59;5089813;28;20012;-73
2021/11/21 10:47:56;;;;;;;33.55;21.38;;;;;;;6.29;100.00;97507.44;5090197;28;20031;-76
2021/11/21 10:50:28;;;;;;;36.40;20.75;;;;;;;7.17;100.00;97512.03;5090077;28;20035;-74
2021/11/21 10:52:54;;;;;;;36.40;21.02;;;;;;;7.15;100.00;97514.22;5084346;28;20056;-74
2021/11/21 10:55:20;;;;;;;37.67;22.05;;;;;;;7.26;100.00;97505.72;5089407;28;20028;-75
2021/11/21 10:57:46;;;;;;;32.15;20.58;;;;;;;7.01;100.00;97500.47;5089820;28;20028;-77
2021/11/21 11:00:23;;;;;;;34.58;22.15;;;;;;;7.69;100.00;97505.84;5089539;28;21109;-74
2021/11/21 11:02:50;;;;;;;32.35;21.02;;;;;;;8.59;100.00;97496.59;5089184;28;20020;-74
2021/11/21 11:05:24;;;;;;;42.35;22.98;;;;;;;8.99;95.70;97494.41;5088944;28;20502;-74
2021/11/21 11:07:54;;;;;;;33.28;20.70;;;;;;;9.13;94.88;97493.34;5089993;28;20421;-73
2021/11/21 11:10:37;;;;;;;32.78;21.67;;;;;;;9.49;90.51;97485.34;5092526;28;20562;-77
2021/11/21 11:13:06;;;;;;;39.47;23.60;;;;;;;9.55;90.46;97484.16;5095301;28;20360;-73